Pagina principale
METAR-TAF:

METAR-TAF

Aeroporti :

Pratica Di Mare, Italia

Aeroporto militare Mario de Bernardi

latitudine: 41-39N, longitudine: 012-27E, altezza: 6 m

Osservazione

Il bollettino è stato emesso 38 minuti fa, alle 19:55 UTC
Vento 7 kt da nord/nord-est
Temperature 24°C
Umidità 47%
Pressione 1005 hPa
Visibilità 10 km o più
Poco nuvoloso ad un'altezza di 2000 ft

METAR: LIRE 251955Z 02007KT 9999 FEW020 24/12 Q1005 RMK FEW VIS MIN 9999 WIND THR13 03006KT WIND THR31 02007KT BLU

Ora: 22:33 (20:33 UTC)

Previsione

Il bollettino è stato emesso 3 ore e 33 minuti fa, alle 17:00 UTC
Previsione valida dal 25 alle 18 UTC al 26 alle 03 UTC
Vento 10 kt da ovest/sud-ovest
Visibilità 10 km o più
Poco nuvoloso ad un'altezza di 2000 ft

TAF: LIRE 251700Z 2518/2603 25010KT 9999 FEW020

Osservazioni e previsioni meteorologiche di più di 4000 aeroporti (messaggi METAR e TAF).

Le stazioni disponibili sono rappresentate dai dischi gialli e rossi sulla carta.

Puntare il mouse per vedere il nome della stazione.

Clicca sopra per visualizzare le osservazioni e previsioni meteorologiche.

Per cambiare la mappa : fare clic sui pulsanti verdi con una croce nera per ingrandire, il pulsante verde con un trattino per diminuire, o sulla freccia verde per le mappe adiacenti.


METAR-TAF: